sensor_id;sensor_type;location;lat;lon;timestamp;pressure;altitude;pressure_sealevel;temperature;humidity
71043;BME280;58696;52.134;5.500;2022-09-23T00:01:21;101808.44;;;8.97;nan
71043;BME280;58696;52.134;5.500;2022-09-23T00:03:48;101804.06;;;8.96;nan
71043;BME280;58696;52.134;5.500;2022-09-23T00:06:20;101806.66;;;8.96;nan
71043;BME280;58696;52.134;5.500;2022-09-23T00:08:48;101806.66;;;8.96;nan
71043;BME280;58696;52.134;5.500;2022-09-23T00:11:18;101804.00;;;8.94;nan
71043;BME280;58696;52.134;5.500;2022-09-23T00:13:46;101799.44;;;8.88;nan
71043;BME280;58696;52.134;5.500;2022-09-23T00:16:17;101800.34;;;8.89;nan
71043;BME280;58696;52.134;5.500;2022-09-23T00:18:44;101802.94;;;8.89;nan
71043;BME280;58696;52.134;5.500;2022-09-23T00:21:12;101791.63;;;8.88;nan
71043;BME280;58696;52.134;5.500;2022-09-23T00:23:40;101788.19;;;8.90;nan
71043;BME280;58696;52.134;5.500;2022-09-23T00:26:10;101793.41;;;8.90;nan
71043;BME280;58696;52.134;5.500;2022-09-23T00:28:40;101788.19;;;8.90;nan
71043;BME280;58696;52.134;5.500;2022-09-23T00:31:09;101784.75;;;8.91;nan
71043;BME280;58696;52.134;5.500;2022-09-23T00:33:36;101782.16;;;8.91;nan
71043;BME280;58696;52.134;5.500;2022-09-23T00:36:05;101782.03;;;8.87;nan
71043;BME280;58696;52.134;5.500;2022-09-23T00:38:32;101775.88;;;8.85;nan
71043;BME280;58696;52.134;5.500;2022-09-23T00:40:59;101775.75;;;8.82;nan
71043;BME280;58696;52.134;5.500;2022-09-23T00:46:36;101778.28;;;8.81;nan
71043;BME280;58696;52.134;5.500;2022-09-23T00:49:14;101778.22;;;8.79;nan
71043;BME280;58696;52.134;5.500;2022-09-23T00:51:52;101773.84;;;8.78;nan
71043;BME280;58696;52.134;5.500;2022-09-23T00:54:21;101777.16;;;8.74;nan
71043;BME280;58696;52.134;5.500;2022-09-23T00:56:50;101770.16;;;8.73;nan
71043;BME280;58696;52.134;5.500;2022-09-23T00:59:17;101761.22;;;8.66;nan
71043;BME280;58696;52.134;5.500;2022-09-23T01:01:45;101750.66;;;8.63;nan
71043;BME280;58696;52.134;5.500;2022-09-23T01:04:12;101756.78;;;8.64;nan
71043;BME280;58696;52.134;5.500;2022-09-23T01:06:40;101758.38;;;8.60;nan
71043;BME280;58696;52.134;5.500;2022-09-23T01:09:09;101757.50;;;8.59;nan
71043;BME280;58696;52.134;5.500;2022-09-23T01:11:51;101752.97;;;8.55;nan
71043;BME280;58696;52.134;5.500;2022-09-23T01:17:29;101754.50;;;8.50;nan
71043;BME280;58696;52.134;5.500;2022-09-23T01:26:06;101755.56;;;8.34;nan
71043;BME280;58696;52.134;5.500;2022-09-23T01:40:02;101744.53;;;8.18;nan
71043;BME280;58696;52.134;5.500;2022-09-23T01:42:45;101742.69;;;8.16;nan
71043;BME280;58696;52.134;5.500;2022-09-23T01:45:25;101739.25;;;8.17;nan
71043;BME280;58696;52.134;5.500;2022-09-23T01:48:03;101727.19;;;8.19;nan
71043;BME280;58696;52.134;5.500;2022-09-23T01:50:39;101735.81;;;8.18;nan
71043;BME280;58696;52.134;5.500;2022-09-23T01:53:27;101729.81;;;8.19;nan
71043;BME280;58696;52.134;5.500;2022-09-23T01:56:00;101734.88;;;8.16;nan
71043;BME280;58696;52.134;5.500;2022-09-23T01:58:37;101733.06;;;8.15;nan
71043;BME280;58696;52.134;5.500;2022-09-23T02:01:06;101730.44;;;8.13;nan
71043;BME280;58696;52.134;5.500;2022-09-23T02:06:15;101723.44;;;8.12;nan
71043;BME280;58696;52.134;5.500;2022-09-23T02:09:13;101727.78;;;8.11;nan
71043;BME280;58696;52.134;5.500;2022-09-23T02:11:45;101724.19;;;8.09;nan
71043;BME280;58696;52.134;5.500;2022-09-23T02:16:46;101724.97;;;8.07;nan
71043;BME280;58696;52.134;5.500;2022-09-23T02:19:33;101721.47;;;8.06;nan
71043;BME280;58696;52.134;5.500;2022-09-23T02:22:20;101720.53;;;8.04;nan
71043;BME280;58696;52.134;5.500;2022-09-23T02:24:48;101722.16;;;8.02;nan
71043;BME280;58696;52.134;5.500;2022-09-23T02:32:43;101709.09;;;8.01;nan
71043;BME280;58696;52.134;5.500;2022-09-23T02:35:26;101700.34;;;7.98;nan
71043;BME280;58696;52.134;5.500;2022-09-23T02:40:50;101691.56;;;7.96;nan
71043;BME280;58696;52.134;5.500;2022-09-23T02:43:30;101688.03;;;7.94;nan
71043;BME280;58696;52.134;5.500;2022-09-23T02:46:02;101683.59;;;7.92;nan
71043;BME280;58696;52.134;5.500;2022-09-23T02:48:51;101680.00;;;7.90;nan
71043;BME280;58696;52.134;5.500;2022-09-23T02:51:22;101678.25;;;7.89;nan
71043;BME280;58696;52.134;5.500;2022-09-23T02:53:57;101683.59;;;7.92;nan
71043;BME280;58696;52.134;5.500;2022-09-23T02:56:24;101679.25;;;7.92;nan
71043;BME280;58696;52.134;5.500;2022-09-23T02:58:52;101674.94;;;7.93;nan
71043;BME280;58696;52.134;5.500;2022-09-23T03:07:05;101663.88;;;7.98;nan
71043;BME280;58696;52.134;5.500;2022-09-23T03:09:40;101664.78;;;7.99;nan
71043;BME280;58696;52.134;5.500;2022-09-23T03:14:52;101663.00;;;7.98;nan
71043;BME280;58696;52.134;5.500;2022-09-23T03:17:42;101662.13;;;7.97;nan
71043;BME280;58696;52.134;5.500;2022-09-23T03:23:02;101668.06;;;7.95;nan
71043;BME280;58696;52.134;5.500;2022-09-23T03:25:36;101661.22;;;7.97;nan
71043;BME280;58696;52.134;5.500;2022-09-23T03:28:06;101662.06;;;7.96;nan
71043;BME280;58696;52.134;5.500;2022-09-23T03:30:34;101659.53;;;7.97;nan
71043;BME280;58696;52.134;5.500;2022-09-23T03:33:07;101665.59;;;7.98;nan
71043;BME280;58696;52.134;5.500;2022-09-23T03:35:37;101656.97;;;7.99;nan
71043;BME280;58696;52.134;5.500;2022-09-23T03:38:30;101662.22;;;8.01;nan
71043;BME280;58696;52.134;5.500;2022-09-23T03:41:01;101656.16;;;8.00;nan
71043;BME280;58696;52.134;5.500;2022-09-23T03:43:30;101649.28;;;8.02;nan
71043;BME280;58696;52.134;5.500;2022-09-23T03:46:03;101651.06;;;8.03;nan
71043;BME280;58696;52.134;5.500;2022-09-23T03:48:30;101645.09;;;8.06;nan
71043;BME280;58696;52.134;5.500;2022-09-23T03:50:57;101640.75;;;8.06;nan
71043;BME280;58696;52.134;5.500;2022-09-23T03:53:24;101639.06;;;8.07;nan
71043;BME280;58696;52.134;5.500;2022-09-23T03:55:51;101640.03;;;8.09;nan
71043;BME280;58696;52.134;5.500;2022-09-23T03:58:18;101627.88;;;8.09;nan
71043;BME280;58696;52.134;5.500;2022-09-23T04:00:45;101639.25;;;8.11;nan
71043;BME280;58696;52.134;5.500;2022-09-23T04:03:12;101635.81;;;8.13;nan
71043;BME280;58696;52.134;5.500;2022-09-23T04:05:43;101628.91;;;8.13;nan
71043;BME280;58696;52.134;5.500;2022-09-23T04:08:12;101630.59;;;8.13;nan
71043;BME280;58696;52.134;5.500;2022-09-23T04:10:40;101625.41;;;8.13;nan
71043;BME280;58696;52.134;5.500;2022-09-23T04:13:07;101641.09;;;8.14;nan
71043;BME280;58696;52.134;5.500;2022-09-23T04:15:33;101625.41;;;8.13;nan
71043;BME280;58696;52.134;5.500;2022-09-23T04:18:00;101628.84;;;8.11;nan
71043;BME280;58696;52.134;5.500;2022-09-23T04:20:30;101623.63;;;8.11;nan
71043;BME280;58696;52.134;5.500;2022-09-23T04:23:03;101628.69;;;8.08;nan
71043;BME280;58696;52.134;5.500;2022-09-23T04:25:30;101627.81;;;8.08;nan
71043;BME280;58696;52.134;5.500;2022-09-23T04:27:57;101639.00;;;8.05;nan
71043;BME280;58696;52.134;5.500;2022-09-23T04:30:24;101624.13;;;8.03;nan
71043;BME280;58696;52.134;5.500;2022-09-23T04:32:53;101641.47;;;8.02;nan
71043;BME280;58696;52.134;5.500;2022-09-23T04:35:19;101630.13;;;8.00;nan
71043;BME280;58696;52.134;5.500;2022-09-23T04:37:51;101637.09;;;8.01;nan
71043;BME280;58696;52.134;5.500;2022-09-23T04:40:18;101627.44;;;7.98;nan
71043;BME280;58696;52.134;5.500;2022-09-23T04:42:44;101629.09;;;7.96;nan
71043;BME280;58696;52.134;5.500;2022-09-23T04:45:11;101624.72;;;7.95;nan
71043;BME280;58696;52.134;5.500;2022-09-23T04:47:38;101625.56;;;7.94;nan
71043;BME280;58696;52.134;5.500;2022-09-23T04:50:04;101626.41;;;7.95;nan
71043;BME280;58696;52.134;5.500;2022-09-23T04:52:31;101624.66;;;7.94;nan
71043;BME280;58696;52.134;5.500;2022-09-23T04:55:03;101622.94;;;7.94;nan
71043;BME280;58696;52.134;5.500;2022-09-23T04:57:38;101621.22;;;7.95;nan
71043;BME280;58696;52.134;5.500;2022-09-23T05:00:05;101623.00;;;7.96;nan
71043;BME280;58696;52.134;5.500;2022-09-23T05:02:34;101620.47;;;7.97;nan
71043;BME280;58696;52.134;5.500;2022-09-23T05:05:07;101623.94;;;7.98;nan
71043;BME280;58696;52.134;5.500;2022-09-23T05:07:34;101626.69;;;8.01;nan
71043;BME280;58696;52.134;5.500;2022-09-23T05:10:02;101628.44;;;8.02;nan
71043;BME280;58696;52.134;5.500;2022-09-23T05:12:28;101625.91;;;8.04;nan
71043;BME280;58696;52.134;5.500;2022-09-23T05:14:55;101619.06;;;8.06;nan
71043;BME280;58696;52.134;5.500;2022-09-23T05:17:21;101614.72;;;8.06;nan
71043;BME280;58696;52.134;5.500;2022-09-23T05:19:49;101617.38;;;8.08;nan
71043;BME280;58696;52.134;5.500;2022-09-23T05:22:16;101616.59;;;8.09;nan
71043;BME280;58696;52.134;5.500;2022-09-23T05:24:43;101611.38;;;8.09;nan
71043;BME280;58696;52.134;5.500;2022-09-23T05:27:12;101618.41;;;8.11;nan
71043;BME280;58696;52.134;5.500;2022-09-23T05:29:41;101612.38;;;8.13;nan
71043;BME280;58696;52.134;5.500;2022-09-23T05:32:08;101601.97;;;8.13;nan
71043;BME280;58696;52.134;5.500;2022-09-23T05:34:35;101610.69;;;8.15;nan
71043;BME280;58696;52.134;5.500;2022-09-23T05:37:01;101615.09;;;8.16;nan
71043;BME280;58696;52.134;5.500;2022-09-23T05:39:28;101608.22;;;8.18;nan
71043;BME280;58696;52.134;5.500;2022-09-23T05:41:55;101613.69;;;8.24;nan
71043;BME280;58696;52.134;5.500;2022-09-23T05:44:24;101618.13;;;8.27;nan
71043;BME280;58696;52.134;5.500;2022-09-23T05:46:51;101618.25;;;8.30;nan
71043;BME280;58696;52.134;5.500;2022-09-23T05:49:18;101614.88;;;8.32;nan
71043;BME280;58696;52.134;5.500;2022-09-23T05:51:45;101621.13;;;8.37;nan
71043;BME280;58696;52.134;5.500;2022-09-23T05:54:15;101625.56;;;8.40;nan
71043;BME280;58696;52.134;5.500;2022-09-23T05:56:42;101623.16;;;8.45;nan
71043;BME280;58696;52.134;5.500;2022-09-23T05:59:11;101627.63;;;8.49;nan
71043;BME280;58696;52.134;5.500;2022-09-23T06:01:38;101626.16;;;8.54;nan
71043;BME280;58696;52.134;5.500;2022-09-23T06:04:06;101625.38;;;8.57;nan
71043;BME280;58696;52.134;5.500;2022-09-23T06:06:36;101622.00;;;8.59;nan
71043;BME280;58696;52.134;5.500;2022-09-23T06:09:08;101623.88;;;8.64;nan
71043;BME280;58696;52.134;5.500;2022-09-23T06:11:36;101617.88;;;8.66;nan
71043;BME280;58696;52.134;5.500;2022-09-23T06:14:04;101621.50;;;8.70;nan
71043;BME280;58696;52.134;5.500;2022-09-23T06:16:33;101629.47;;;8.74;nan
71043;BME280;58696;52.134;5.500;2022-09-23T06:19:01;101614.81;;;8.77;nan
71043;BME280;58696;52.134;5.500;2022-09-23T06:21:33;101616.69;;;8.81;nan
71043;BME280;58696;52.134;5.500;2022-09-23T06:24:01;101623.72;;;8.83;nan
71043;BME280;58696;52.134;5.500;2022-09-23T06:26:29;101625.56;;;8.86;nan
71043;BME280;58696;52.134;5.500;2022-09-23T06:29:00;101611.69;;;8.87;nan
71043;BME280;58696;52.134;5.500;2022-09-23T06:31:29;101617.91;;;8.91;nan
71043;BME280;58696;52.134;5.500;2022-09-23T06:34:03;101608.47;;;8.94;nan
71043;BME280;58696;52.134;5.500;2022-09-23T06:36:40;101619.91;;;8.98;nan
71043;BME280;58696;52.134;5.500;2022-09-23T06:39:13;101622.66;;;9.03;nan
71043;BME280;58696;52.134;5.500;2022-09-23T06:41:41;101614.91;;;9.04;nan
71043;BME280;58696;52.134;5.500;2022-09-23T06:44:08;101623.75;;;9.08;nan
71043;BME280;58696;52.134;5.500;2022-09-23T06:46:35;101622.22;;;9.14;nan
71043;BME280;58696;52.134;5.500;2022-09-23T06:49:02;101618.00;;;9.18;nan
71043;BME280;58696;52.134;5.500;2022-09-23T06:51:29;101622.59;;;9.25;nan
71043;BME280;58696;52.134;5.500;2022-09-23T06:53:55;101621.09;;;9.32;nan
71043;BME280;58696;52.134;5.500;2022-09-23T06:56:22;101614.31;;;9.37;nan
71043;BME280;58696;52.134;5.500;2022-09-23T06:58:50;101611.16;;;9.46;nan
71043;BME280;58696;52.134;5.500;2022-09-23T07:01:18;101622.66;;;9.53;nan
71043;BME280;58696;52.134;5.500;2022-09-23T07:03:46;101612.47;;;9.61;nan
71043;BME280;58696;52.134;5.500;2022-09-23T07:06:14;101623.28;;;9.72;nan
71043;BME280;58696;52.134;5.500;2022-09-23T07:08:44;101621.06;;;9.84;nan
71043;BME280;58696;52.134;5.500;2022-09-23T07:11:13;101614.41;;;9.94;nan
71043;BME280;58696;52.134;5.500;2022-09-23T07:13:44;101619.19;;;10.08;nan
71043;BME280;58696;52.134;5.500;2022-09-23T07:16:11;101617.75;;;10.17;nan
71043;BME280;58696;52.134;5.500;2022-09-23T07:18:42;101620.72;;;10.30;nan
71043;BME280;58696;52.134;5.500;2022-09-23T07:21:14;101622.88;;;10.43;nan
71043;BME280;58696;52.134;5.500;2022-09-23T07:23:46;101615.44;;;10.56;nan
71043;BME280;58696;52.134;5.500;2022-09-23T07:26:15;101616.63;;;10.67;nan
71043;BME280;58696;52.134;5.500;2022-09-23T07:28:42;101603.88;;;10.78;nan
71043;BME280;58696;52.134;5.500;2022-09-23T07:31:13;101608.72;;;10.97;nan
71043;BME280;58696;52.134;5.500;2022-09-23T07:33:47;101601.63;;;11.25;nan
71043;BME280;58696;52.134;5.500;2022-09-23T07:36:17;101606.25;;;11.70;nan
71043;BME280;58696;52.134;5.500;2022-09-23T07:38:46;101606.06;;;12.00;nan
71043;BME280;58696;52.134;5.500;2022-09-23T07:41:16;101605.81;;;12.27;nan
71043;BME280;58696;52.134;5.500;2022-09-23T07:43:44;101606.13;;;12.41;nan
71043;BME280;58696;52.134;5.500;2022-09-23T07:46:13;101611.00;;;12.66;nan
71043;BME280;58696;52.134;5.500;2022-09-23T07:48:43;101607.63;;;12.71;nan
71043;BME280;58696;52.134;5.500;2022-09-23T07:51:18;101612.88;;;12.71;nan
71043;BME280;58696;52.134;5.500;2022-09-23T07:53:48;101618.13;;;12.71;nan
71043;BME280;58696;52.134;5.500;2022-09-23T07:56:19;101621.66;;;12.73;nan
71043;BME280;58696;52.134;5.500;2022-09-23T07:58:46;101617.22;;;12.69;nan
71043;BME280;58696;52.134;5.500;2022-09-23T08:01:27;101618.25;;;12.78;nan
71043;BME280;58696;52.134;5.500;2022-09-23T08:04:00;101619.25;;;13.32;nan
71043;BME280;58696;52.134;5.500;2022-09-23T08:06:27;101621.59;;;13.66;nan
71043;BME280;58696;52.134;5.500;2022-09-23T08:08:57;101620.91;;;13.76;nan
71043;BME280;58696;52.134;5.500;2022-09-23T08:11:25;101618.59;;;13.95;nan
71043;BME280;58696;52.134;5.500;2022-09-23T08:13:55;101621.63;;;14.25;nan
71043;BME280;58696;52.134;5.500;2022-09-23T08:16:25;101619.94;;;14.30;nan
71043;BME280;58696;52.134;5.500;2022-09-23T08:18:52;101623.56;;;14.40;nan
71043;BME280;58696;52.134;5.500;2022-09-23T08:21:20;101624.44;;;14.39;nan
71043;BME280;58696;52.134;5.500;2022-09-23T08:23:47;101611.22;;;14.34;nan
71043;BME280;58696;52.134;5.500;2022-09-23T08:26:14;101624.31;;;14.30;nan
71043;BME280;58696;52.134;5.500;2022-09-23T08:28:48;101622.53;;;14.27;nan
71043;BME280;58696;52.134;5.500;2022-09-23T08:31:15;101623.78;;;14.56;nan
71043;BME280;58696;52.134;5.500;2022-09-23T08:33:42;101623.44;;;14.97;nan
71043;BME280;58696;52.134;5.500;2022-09-23T08:36:08;101614.84;;;15.15;nan
71043;BME280;58696;52.134;5.500;2022-09-23T08:38:35;101613.16;;;15.22;nan
71043;BME280;58696;52.134;5.500;2022-09-23T08:41:15;101620.97;;;15.13;nan
71043;BME280;58696;52.134;5.500;2022-09-23T08:43:48;101613.00;;;15.07;nan
71043;BME280;58696;52.134;5.500;2022-09-23T08:46:22;101618.28;;;15.10;nan
71043;BME280;58696;52.134;5.500;2022-09-23T08:48:52;101614.88;;;15.17;nan
71043;BME280;58696;52.134;5.500;2022-09-23T08:51:32;101617.50;;;15.18;nan
71043;BME280;58696;52.134;5.500;2022-09-23T08:54:00;101623.69;;;15.24;nan
71043;BME280;58696;52.134;5.500;2022-09-23T08:56:28;101614.03;;;15.23;nan
71043;BME280;58696;52.134;5.500;2022-09-23T09:04:01;101614.41;;;15.65;nan
71043;BME280;58696;52.134;5.500;2022-09-23T09:06:57;101612.66;;;15.64;nan
71043;BME280;58696;52.134;5.500;2022-09-23T09:09:52;101609.91;;;15.50;nan
71043;BME280;58696;52.134;5.500;2022-09-23T09:12:31;101608.00;;;15.32;nan
71043;BME280;58696;52.134;5.500;2022-09-23T09:15:04;101615.75;;;15.21;nan
71043;BME280;58696;52.134;5.500;2022-09-23T09:20:21;101605.97;;;15.05;nan
71043;BME280;58696;52.134;5.500;2022-09-23T09:25:44;101607.72;;;15.07;nan
71043;BME280;58696;52.134;5.500;2022-09-23T09:28:16;101610.31;;;15.02;nan
71043;BME280;58696;52.134;5.500;2022-09-23T09:30:49;101605.00;;;14.96;nan
71043;BME280;58696;52.134;5.500;2022-09-23T09:33:18;101615.47;;;14.92;nan
71043;BME280;58696;52.134;5.500;2022-09-23T09:38:45;101599.66;;;14.91;nan
71043;BME280;58696;52.134;5.500;2022-09-23T09:41:15;101602.38;;;14.97;nan
71043;BME280;58696;52.134;5.500;2022-09-23T09:43:46;101591.00;;;15.01;nan
71043;BME280;58696;52.134;5.500;2022-09-23T09:46:48;101595.47;;;15.12;nan
71043;BME280;58696;52.134;5.500;2022-09-23T09:52:28;101592.03;;;15.17;nan
71043;BME280;58696;52.134;5.500;2022-09-23T09:57:48;101593.91;;;15.29;nan
71043;BME280;58696;52.134;5.500;2022-09-23T10:00:34;101594.09;;;15.48;nan
71043;BME280;58696;52.134;5.500;2022-09-23T10:08:32;101583.78;;;15.86;nan
71043;BME280;58696;52.134;5.500;2022-09-23T10:11:14;101590.06;;;15.97;nan
71043;BME280;58696;52.134;5.500;2022-09-23T10:14:10;101584.00;;;16.15;nan
71043;BME280;58696;52.134;5.500;2022-09-23T10:16:38;101573.53;;;16.25;nan
71043;BME280;58696;52.134;5.500;2022-09-23T10:19:22;101573.59;;;16.39;nan
71043;BME280;58696;52.134;5.500;2022-09-23T10:21:53;101572.75;;;16.54;nan
71043;BME280;58696;52.134;5.500;2022-09-23T10:24:34;101571.94;;;16.72;nan
71043;BME280;58696;52.134;5.500;2022-09-23T10:27:08;101568.47;;;16.95;nan
71043;BME280;58696;52.134;5.500;2022-09-23T10:29:48;101561.47;;;17.09;nan
71043;BME280;58696;52.134;5.500;2022-09-23T10:32:25;101571.19;;;17.20;nan
71043;BME280;58696;52.134;5.500;2022-09-23T10:35:00;101565.00;;;17.27;nan
71043;BME280;58696;52.134;5.500;2022-09-23T10:40:34;101563.25;;;17.26;nan
71043;BME280;58696;52.134;5.500;2022-09-23T10:46:40;101566.72;;;17.05;nan
71043;BME280;58696;52.134;5.500;2022-09-23T10:49:40;101563.19;;;16.85;nan
71043;BME280;58696;52.134;5.500;2022-09-23T10:52:34;101565.78;;;16.76;nan
71043;BME280;58696;52.134;5.500;2022-09-23T11:03:22;101556.97;;;16.62;nan
71043;BME280;58696;52.134;5.500;2022-09-23T11:14:30;101559.59;;;16.68;nan
71043;BME280;58696;52.134;5.500;2022-09-23T11:19:57;101563.16;;;16.73;nan
71043;BME280;58696;52.134;5.500;2022-09-23T11:30:46;101547.31;;;16.92;nan
71043;BME280;58696;52.134;5.500;2022-09-23T11:33:22;101558.78;;;16.91;nan
71043;BME280;58696;52.134;5.500;2022-09-23T11:35:58;101554.38;;;16.96;nan
71043;BME280;58696;52.134;5.500;2022-09-23T11:38:35;101557.03;;;17.04;nan
71043;BME280;58696;52.134;5.500;2022-09-23T11:41:20;101546.53;;;17.05;nan
71043;BME280;58696;52.134;5.500;2022-09-23T11:43:51;101540.34;;;17.09;nan
71043;BME280;58696;52.134;5.500;2022-09-23T11:46:33;101546.50;;;17.13;nan
71043;BME280;58696;52.134;5.500;2022-09-23T11:49:12;101550.06;;;17.18;nan
71043;BME280;58696;52.134;5.500;2022-09-23T11:51:56;101545.66;;;17.13;nan
71043;BME280;58696;52.134;5.500;2022-09-23T11:57:05;101534.19;;;17.07;nan
71043;BME280;58696;52.134;5.500;2022-09-23T11:59:41;101534.19;;;17.17;nan
71043;BME280;58696;52.134;5.500;2022-09-23T12:05:01;101533.31;;;17.36;nan
71043;BME280;58696;52.134;5.500;2022-09-23T12:07:51;101535.94;;;17.47;nan
71043;BME280;58696;52.134;5.500;2022-09-23T12:27:37;101518.25;;;17.92;nan
71043;BME280;58696;52.134;5.500;2022-09-23T12:30:13;101520.88;;;17.85;nan
71043;BME280;58696;52.134;5.500;2022-09-23T12:32:42;101512.97;;;17.84;nan
71043;BME280;58696;52.134;5.500;2022-09-23T12:37:50;101497.13;;;17.74;nan
71043;BME280;58696;52.134;5.500;2022-09-23T12:40:29;101495.38;;;17.75;nan
71043;BME280;58696;52.134;5.500;2022-09-23T12:42:57;101490.06;;;17.80;nan
71043;BME280;58696;52.134;5.500;2022-09-23T12:48:03;101494.50;;;17.79;nan
71043;BME280;58696;52.134;5.500;2022-09-23T12:56:19;101490.91;;;17.91;nan
71043;BME280;58696;52.134;5.500;2022-09-23T13:03:46;101490.91;;;17.90;nan
71043;BME280;58696;52.134;5.500;2022-09-23T13:06:54;101490.91;;;17.94;nan
71043;BME280;58696;52.134;5.500;2022-09-23T13:09:25;101480.31;;;17.96;nan
71043;BME280;58696;52.134;5.500;2022-09-23T13:12:01;101492.66;;;18.00;nan
71043;BME280;58696;52.134;5.500;2022-09-23T13:14:31;101483.81;;;18.01;nan
71043;BME280;58696;52.134;5.500;2022-09-23T13:16:59;101481.16;;;17.99;nan
71043;BME280;58696;52.134;5.500;2022-09-23T13:26:51;101476.78;;;18.00;nan
71043;BME280;58696;52.134;5.500;2022-09-23T13:32:16;101466.19;;;17.97;nan
71043;BME280;58696;52.134;5.500;2022-09-23T13:35:14;101468.84;;;17.95;nan
71043;BME280;58696;52.134;5.500;2022-09-23T13:37:44;101466.25;;;17.86;nan
71043;BME280;58696;52.134;5.500;2022-09-23T13:40:22;101465.41;;;17.74;nan
71043;BME280;58696;52.134;5.500;2022-09-23T13:43:02;101464.56;;;17.66;nan
71043;BME280;58696;52.134;5.500;2022-09-23T13:45:30;101461.03;;;17.62;nan
71043;BME280;58696;52.134;5.500;2022-09-23T13:48:07;101461.06;;;17.56;nan
71043;BME280;58696;52.134;5.500;2022-09-23T13:50:38;101469.88;;;17.49;nan
71043;BME280;58696;52.134;5.500;2022-09-23T13:53:11;101469.88;;;17.43;nan
71043;BME280;58696;52.134;5.500;2022-09-23T13:55:42;101466.38;;;17.41;nan
71043;BME280;58696;52.134;5.500;2022-09-23T13:58:20;101467.25;;;17.33;nan
71043;BME280;58696;52.134;5.500;2022-09-23T14:00:50;101462.88;;;17.32;nan
71043;BME280;58696;52.134;5.500;2022-09-23T14:05:44;101461.13;;;17.25;nan
71043;BME280;58696;52.134;5.500;2022-09-23T14:08:12;101458.47;;;17.30;nan
71043;BME280;58696;52.134;5.500;2022-09-23T14:10:44;101453.16;;;17.39;nan
71043;BME280;58696;52.134;5.500;2022-09-23T14:13:27;101451.38;;;17.47;nan
71043;BME280;58696;52.134;5.500;2022-09-23T14:15:57;101444.34;;;17.49;nan
71043;BME280;58696;52.134;5.500;2022-09-23T14:18:31;101442.56;;;17.50;nan
71043;BME280;58696;52.134;5.500;2022-09-23T14:20:59;101441.69;;;17.51;nan
71043;BME280;58696;52.134;5.500;2022-09-23T14:23:25;101444.31;;;17.53;nan
71043;BME280;58696;52.134;5.500;2022-09-23T14:25:52;101440.81;;;17.46;nan
71043;BME280;58696;52.134;5.500;2022-09-23T14:28:20;101434.66;;;17.45;nan
71043;BME280;58696;52.134;5.500;2022-09-23T14:30:53;101430.28;;;17.40;nan
71043;BME280;58696;52.134;5.500;2022-09-23T14:33:34;101429.38;;;17.34;nan
71043;BME280;58696;52.134;5.500;2022-09-23T14:36:16;101426.75;;;17.36;nan
71043;BME280;58696;52.134;5.500;2022-09-23T14:39:08;101429.38;;;17.34;nan
71043;BME280;58696;52.134;5.500;2022-09-23T14:41:38;101420.59;;;17.32;nan
71043;BME280;58696;52.134;5.500;2022-09-23T14:44:13;101414.44;;;17.30;nan
71043;BME280;58696;52.134;5.500;2022-09-23T14:46:55;101414.47;;;17.26;nan
71043;BME280;58696;52.134;5.500;2022-09-23T14:49:23;101418.84;;;17.25;nan
71043;BME280;58696;52.134;5.500;2022-09-23T14:51:58;101419.75;;;17.22;nan
71043;BME280;58696;52.134;5.500;2022-09-23T14:54:34;101426.78;;;17.23;nan
71043;BME280;58696;52.134;5.500;2022-09-23T15:00:07;101410.94;;;17.23;nan
71043;BME280;58696;52.134;5.500;2022-09-23T15:02:41;101418.84;;;17.23;nan
71043;BME280;58696;52.134;5.500;2022-09-23T15:05:20;101407.38;;;17.21;nan
71043;BME280;58696;52.134;5.500;2022-09-23T15:07:51;101417.97;;;17.21;nan
71043;BME280;58696;52.134;5.500;2022-09-23T15:10:25;101409.16;;;17.18;nan
71043;BME280;58696;52.134;5.500;2022-09-23T15:12:54;101415.34;;;17.15;nan
71043;BME280;58696;52.134;5.500;2022-09-23T15:15:26;101410.94;;;17.13;nan
71043;BME280;58696;52.134;5.500;2022-09-23T15:18:02;101410.06;;;17.07;nan
71043;BME280;58696;52.134;5.500;2022-09-23T15:20:33;101411.81;;;17.02;nan
71043;BME280;58696;52.134;5.500;2022-09-23T15:23:00;101398.59;;;16.97;nan
71043;BME280;58696;52.134;5.500;2022-09-23T15:25:33;101404.75;;;16.92;nan
71043;BME280;58696;52.134;5.500;2022-09-23T15:28:23;101402.13;;;16.85;nan
71043;BME280;58696;52.134;5.500;2022-09-23T15:30:50;101399.50;;;16.81;nan
71043;BME280;58696;52.134;5.500;2022-09-23T15:33:17;101391.56;;;16.76;nan
71043;BME280;58696;52.134;5.500;2022-09-23T15:35:46;101392.44;;;16.75;nan
71043;BME280;58696;52.134;5.500;2022-09-23T15:38:15;101399.50;;;16.73;nan
71043;BME280;58696;52.134;5.500;2022-09-23T15:40:43;101403.88;;;16.68;nan
71043;BME280;58696;52.134;5.500;2022-09-23T15:45:56;101397.72;;;16.59;nan
71043;BME280;58696;52.134;5.500;2022-09-23T15:48:27;101393.34;;;16.57;nan
71043;BME280;58696;52.134;5.500;2022-09-23T15:50:55;101398.59;;;16.54;nan
71043;BME280;58696;52.134;5.500;2022-09-23T15:53:24;101390.72;;;16.49;nan
71043;BME280;58696;52.134;5.500;2022-09-23T15:55:51;101395.09;;;16.45;nan
71043;BME280;58696;52.134;5.500;2022-09-23T15:58:19;101396.84;;;16.40;nan
71043;BME280;58696;52.134;5.500;2022-09-23T16:00:50;101394.19;;;16.36;nan
71043;BME280;58696;52.134;5.500;2022-09-23T16:03:23;101396.81;;;16.31;nan
71043;BME280;58696;52.134;5.500;2022-09-23T16:05:58;101394.19;;;16.26;nan
71043;BME280;58696;52.134;5.500;2022-09-23T16:08:27;101390.63;;;16.21;nan
71043;BME280;58696;52.134;5.500;2022-09-23T16:10:54;101385.38;;;16.16;nan
71043;BME280;58696;52.134;5.500;2022-09-23T16:13:23;101386.25;;;16.11;nan
71043;BME280;58696;52.134;5.500;2022-09-23T16:15:52;101384.47;;;16.05;nan
71043;BME280;58696;52.134;5.500;2022-09-23T16:18:18;101389.72;;;16.02;nan
71043;BME280;58696;52.134;5.500;2022-09-23T16:20:47;101391.47;;;15.97;nan
71043;BME280;58696;52.134;5.500;2022-09-23T16:23:23;101383.50;;;15.92;nan
71043;BME280;58696;52.134;5.500;2022-09-23T16:26:50;101385.25;;;15.87;nan